KAUM

Details ICAO KAUM
Name Austin Muncipal Airport
Region United States
Timezone America/Chicago (UTC-5.0)
Plans Departing 37
Arriving 53
Stats Elevation 1,233 ft / 376 m (AMSL)
Location 43.662700° -92.932900°
Runways 1
Magnetic Variation 0.116° W
Sunrise 2020-07-09 10:40:37 UTC / 2020-07-09 05:40:37 Local
Sunset 2020-07-10 01:55:36 UTC / 2020-07-09 20:55:36 Local
Advertisement - Login to hide

Runways

ID Width Length Bearing (true/mag) Surface Threshold Overrun Markings Lighting
17 100 ft / 30 m 5,808 ft / 1,770 m 172.16° / 172.27° CONCRETE 0 ft / 0 m 203 ft / 62 m PREC-APP CENTERLINE EDGE THRESHOLD MALSR
35 100 ft / 30 m 5,808 ft / 1,770 m 352.16° / 352.28° CONCRETE 0 ft / 0 m 200 ft / 61 m PREC-APP CENTERLINE EDGE THRESHOLD MALSF

Map

Weather


0- 5 10 15 20 25 30 35+ Temperature / °C

Clouds and Precipitation
Forecast for 2020-07-10 06:00 UTC. Updated 32 minutes ago

Ground ~20,000 ft ~40,000 ft Winds

METAR

KAUM 100355Z AUTO 00000KT 7SM OVC006 20/19 A2991 RMK AO2

TAF

Not found

Frequencies

Approach 132.35 MHz Minneapolis Approach
Unicom 122.70 MHz Austin Muni Unicom
Recorded 119.02 MHz Austin Muni AWOS
Approach 119.80 MHz Rochester Approach
Warning: Do not use this data for real-world aviation or navigation. No guarantee of current accuracy is given.